Time;durP1;ratioP1;P1;durP2;ratioP2;P2;SDS_P1;SDS_P2;PMS_P1;PMS_P2;Temp;Humidity;BMP_temperature;BMP_pressure;BME280_temperature;BME280_humidity;BME280_pressure;Samples;Min_cycle;Max_cycle;Signal;HPM_P1;HPM_P2
2024/01/22 00:00:00;;;;;;;11.87;10.10;;;;;;;-2.43;100.00;135415.56;5112077;28;20180;-55
2024/01/22 00:02:28;;;;;;;11.80;10.70;;;;;;;-2.33;100.00;132990.19;5112256;28;20183;-56
2024/01/22 00:04:55;;;;;;;13.97;11.43;;;;;;;-2.43;100.00;135177.69;5112044;28;20251;-57
2024/01/22 00:07:22;;;;;;;14.73;11.63;;;;;;;-2.29;100.00;137472.38;5111967;28;20183;-55
2024/01/22 00:09:49;;;;;;;12.27;10.97;;;;;;;-2.34;100.00;138716.63;5112121;28;20664;-57
2024/01/22 00:12:17;;;;;;;12.47;11.17;;;;;;;-2.29;100.00;138890.31;5112305;28;20187;-57
2024/01/22 00:14:44;;;;;;;13.63;11.60;;;;;;;-2.16;100.00;139378.38;5112261;28;20560;-55
2024/01/22 00:17:11;;;;;;;11.97;10.63;;;;;;;-2.19;100.00;141663.00;5112180;28;20574;-56
2024/01/22 00:19:38;;;;;;;12.73;11.43;;;;;;;-2.20;100.00;145521.13;5111910;28;20187;-55
2024/01/22 00:22:06;;;;;;;13.00;11.50;;;;;;;-2.16;100.00;145532.38;5112199;28;20187;-57
2024/01/22 00:24:33;;;;;;;13.67;11.73;;;;;;;-2.09;100.00;145548.66;5111843;28;20190;-55
2024/01/22 00:27:03;;;;;;;11.87;10.63;;;;;;;-2.26;100.00;145507.41;5112122;28;20213;-56
2024/01/22 00:29:31;;;;;;;14.97;11.57;;;;;;;-2.19;100.00;145524.91;5112025;28;20280;-57
2024/01/22 00:31:58;;;;;;;11.73;10.60;;;;;;;-2.27;100.00;145504.91;5112166;28;20695;-57
2024/01/22 00:34:25;;;;;;;12.53;11.20;;;;;;;-2.13;100.00;145538.66;5112145;28;20190;-56
2024/01/22 00:36:52;;;;;;;12.67;11.20;;;;;;;-2.06;100.00;145556.16;5113373;28;20595;-56
2024/01/22 00:39:19;;;;;;;12.80;11.50;;;;;;;-2.15;100.00;145533.66;5115567;28;20241;-55
2024/01/22 00:41:46;;;;;;;13.17;11.57;;;;;;;-2.19;100.00;145523.66;5115607;28;20241;-55
2024/01/22 00:44:14;;;;;;;13.00;11.63;;;;;;;-2.10;100.00;145546.16;5115923;28;20233;-57
2024/01/22 00:46:42;;;;;;;12.53;10.80;;;;;;;-2.15;100.00;145534.91;5115542;28;20180;-55
2024/01/22 00:49:09;;;;;;;12.53;11.23;;;;;;;-2.21;100.00;145518.66;5115485;28;20231;-56
2024/01/22 00:51:38;;;;;;;14.57;11.67;;;;;;;-2.18;100.00;145526.16;5115449;28;20245;-55
2024/01/22 00:54:05;;;;;;;13.33;11.40;;;;;;;-2.15;100.00;145534.91;5115715;28;20717;-57
2024/01/22 00:56:33;;;;;;;12.40;11.20;;;;;;;-2.14;100.00;145537.41;5115377;28;20183;-57
2024/01/22 00:59:00;;;;;;;13.60;11.60;;;;;;;-2.19;100.00;145524.91;5115407;28;20266;-56
2024/01/22 01:01:27;;;;;;;13.47;11.13;;;;;;;-2.32;100.00;145493.66;5115600;28;20663;-57
2024/01/22 01:03:56;;;;;;;14.37;11.80;;;;;;;-2.26;100.00;145506.16;5115481;28;20232;-57
2024/01/22 01:06:23;;;;;;;16.17;11.70;;;;;;;-2.28;100.00;145501.13;5115173;28;20188;-56
2024/01/22 01:08:49;;;;;;;11.53;10.47;;;;;;;-2.34;100.00;145488.69;5115351;28;20611;-57
2024/01/22 01:11:16;;;;;;;12.97;11.60;;;;;;;-2.46;100.00;145457.44;5115138;28;20180;-56
2024/01/22 01:13:43;;;;;;;12.50;10.37;;;;;;;-2.43;100.00;145466.16;5115315;28;20582;-57
2024/01/22 01:16:10;;;;;;;12.53;11.13;;;;;;;-2.37;100.00;145479.88;5114905;28;20192;-56
2024/01/22 01:18:37;;;;;;;13.03;11.40;;;;;;;-2.46;100.00;145457.44;5115277;28;20217;-54
2024/01/22 01:21:08;;;;;;;14.87;11.93;;;;;;;-2.54;100.00;145438.63;5115430;28;20184;-57
2024/01/22 01:23:35;;;;;;;13.67;11.37;;;;;;;-2.65;100.00;145409.91;5115882;28;20622;-57
2024/01/22 01:26:02;;;;;;;13.03;11.63;;;;;;;-2.72;100.00;145392.44;5115131;28;20703;-57
2024/01/22 01:28:29;;;;;;;13.63;12.27;;;;;;;-2.77;100.00;145381.19;5115495;27;20183;-56
2024/01/22 01:30:56;;;;;;;14.43;11.57;;;;;;;-2.85;100.00;145361.19;5114917;28;20630;-54
2024/01/22 01:33:23;;;;;;;16.40;11.30;;;;;;;-2.93;100.00;145055.84;5114709;28;20187;-56
2024/01/22 01:35:50;;;;;;;14.63;11.80;;;;;;;-2.88;100.00;140901.91;5114696;28;20225;-53
2024/01/22 01:38:19;;;;;;;16.30;12.10;;;;;;;-2.99;100.00;135733.63;5114523;28;20187;-54
2024/01/22 01:40:46;;;;;;;17.23;13.07;;;;;;;-2.93;100.00;129828.84;5115178;28;20531;-55
2024/01/22 01:43:16;;;;;;;15.20;12.23;;;;;;;-2.95;100.00;124439.94;5115557;28;20188;-55
2024/01/22 01:45:43;;;;;;;15.47;12.33;;;;;;;-2.91;100.00;119355.25;5114604;28;20270;-55
2024/01/22 01:48:11;;;;;;;17.43;12.77;;;;;;;-2.82;100.00;115971.00;5113909;28;20187;-56
2024/01/22 01:50:38;;;;;;;15.10;12.07;;;;;;;-2.82;100.00;113504.00;5114566;28;20673;-56
2024/01/22 01:53:06;;;;;;;18.17;12.33;;;;;;;-2.78;100.00;112017.72;5114317;28;20237;-57
2024/01/22 01:55:36;;;;;;;19.20;13.00;;;;;;;-2.90;100.00;110805.81;5114141;28;20234;-55
2024/01/22 01:58:04;;;;;;;18.30;12.80;;;;;;;-2.69;100.00;112257.91;5114349;28;20266;-54
2024/01/22 02:00:31;;;;;;;16.60;12.63;;;;;;;-2.68;100.00;112576.50;5114509;28;20592;-55
2024/01/22 02:02:59;;;;;;;16.57;12.10;;;;;;;-2.68;100.00;112358.34;5114151;28;20183;-56
2024/01/22 02:05:26;;;;;;;18.83;13.10;;;;;;;-2.58;100.00;113040.47;5114421;28;20188;-54
2024/01/22 02:07:53;;;;;;;21.47;13.50;;;;;;;-2.75;100.00;114369.03;5113975;28;20179;-55
2024/01/22 02:10:20;;;;;;;15.07;12.03;;;;;;;-2.62;100.00;115259.06;5114218;27;20207;-56
2024/01/22 02:12:48;;;;;;;18.60;12.47;;;;;;;-2.63;100.00;118430.91;5113945;28;20179;-55
2024/01/22 02:15:16;;;;;;;17.47;13.03;;;;;;;-2.44;100.00;120407.81;5113943;28;20179;-55
2024/01/22 02:17:43;;;;;;;17.83;13.77;;;;;;;-2.41;100.00;122216.09;5114058;28;20187;-56
2024/01/22 02:20:11;;;;;;;22.37;13.13;;;;;;;-2.35;100.00;123819.38;5114047;28;20179;-55
2024/01/22 02:22:38;;;;;;;21.83;13.33;;;;;;;-2.38;100.00;125999.91;5113644;28;20183;-56
2024/01/22 02:25:07;;;;;;;16.23;12.90;;;;;;;-2.49;100.00;128438.44;5113879;28;20188;-57
2024/01/22 02:27:34;;;;;;;21.47;13.87;;;;;;;-2.53;100.00;128476.38;5113904;28;20179;-54
2024/01/22 02:30:02;;;;;;;15.60;12.10;;;;;;;-2.49;100.00;127840.66;5113547;28;20277;-57
2024/01/22 02:32:29;;;;;;;18.40;13.47;;;;;;;-2.55;100.00;126934.50;5113661;28;20299;-57
2024/01/22 02:34:56;;;;;;;13.33;11.90;;;;;;;-2.72;100.00;124737.53;5113626;28;20217;-55
2024/01/22 02:37:23;;;;;;;14.73;11.97;;;;;;;-2.67;100.00;121229.59;5113448;28;20196;-54
2024/01/22 02:39:50;;;;;;;17.37;12.20;;;;;;;-2.83;100.00;116740.00;5113674;28;20199;-56
2024/01/22 02:42:18;;;;;;;14.37;11.30;;;;;;;-2.65;100.00;115308.72;5113666;28;20627;-57
2024/01/22 02:44:45;;;;;;;19.07;13.00;;;;;;;-2.71;100.00;114803.97;5113297;28;20184;-55
2024/01/22 02:47:13;;;;;;;19.67;13.97;;;;;;;-2.76;100.00;112859.00;5113249;28;20195;-56
2024/01/22 02:49:40;;;;;;;14.80;12.27;;;;;;;-2.74;100.00;110511.34;5113710;28;20255;-55
2024/01/22 02:52:07;;;;;;;16.90;13.17;;;;;;;-2.74;100.00;109914.16;5113239;28;20307;-56
2024/01/22 02:54:34;;;;;;;16.63;11.97;;;;;;;-2.67;100.00;108201.53;5112903;28;20230;-53
2024/01/22 02:57:03;;;;;;;16.37;11.87;;;;;;;-2.70;100.00;109406.00;5113693;28;20638;-54
2024/01/22 02:59:31;;;;;;;13.57;11.37;;;;;;;-2.96;100.00;110959.94;5112611;28;20257;-56
2024/01/22 03:01:58;;;;;;;19.00;13.20;;;;;;;-2.89;100.00;108846.53;5112915;28;20187;-55
2024/01/22 03:04:25;;;;;;;15.67;11.10;;;;;;;-3.06;100.00;107685.28;5113219;28;20630;-56
2024/01/22 03:06:52;;;;;;;13.97;10.77;;;;;;;-2.82;100.00;103632.94;5113157;28;20236;-57
2024/01/22 03:09:19;;;;;;;16.03;10.70;;;;;;;-2.75;100.00;100446.94;5113027;28;20587;-55
2024/01/22 03:11:46;;;;;;;14.63;11.83;;;;;;;-2.74;100.00;98606.94;5112864;28;20263;-54
2024/01/22 03:14:13;;;;;;;17.73;13.10;;;;;;;-2.69;100.00;97217.06;5112759;28;20190;-55
2024/01/22 03:16:42;;;;;;;13.97;11.60;;;;;;;-2.82;100.00;97718.25;5112659;28;20179;-56
2024/01/22 03:19:09;;;;;;;16.97;11.70;;;;;;;-2.87;100.00;98934.44;5112747;28;20191;-54
2024/01/22 03:21:36;;;;;;;15.93;11.83;;;;;;;-2.90;100.00;99667.13;5112651;28;20195;-56
2024/01/22 03:24:03;;;;;;;15.43;10.50;;;;;;;-2.85;100.00;97356.19;5112855;28;20645;-55
2024/01/22 03:26:30;;;;;;;12.80;10.80;;;;;;;-2.82;100.00;97176.03;5112595;28;20260;-56
2024/01/22 03:28:57;;;;;;;15.97;12.00;;;;;;;-2.90;100.00;96222.63;5112558;28;20274;-55
2024/01/22 03:31:26;;;;;;;12.73;11.43;;;;;;;-2.71;100.00;97834.00;5112673;28;20207;-55
2024/01/22 03:33:55;;;;;;;17.73;12.20;;;;;;;-2.65;100.00;99621.13;5113286;28;20237;-55
2024/01/22 03:36:23;;;;;;;15.83;12.40;;;;;;;-2.58;100.00;102810.72;5112401;28;20213;-57
2024/01/22 03:38:50;;;;;;;14.83;12.10;;;;;;;-2.58;100.00;105280.28;5112729;28;20188;-56
2024/01/22 03:41:17;;;;;;;15.07;11.33;;;;;;;-2.38;100.00;108568.50;5112848;28;20191;-56
2024/01/22 03:43:45;;;;;;;11.47;9.63;;;;;;;-2.32;100.00;113093.59;5112259;28;20244;-57
2024/01/22 03:46:12;;;;;;;14.57;11.87;;;;;;;-2.43;100.00;119407.25;5112300;28;20187;-56
2024/01/22 03:48:39;;;;;;;15.00;11.60;;;;;;;-2.44;100.00;120115.13;5112658;28;20600;-57
2024/01/22 03:51:08;;;;;;;14.33;11.30;;;;;;;-2.10;100.00;122623.94;5112444;28;20199;-55
2024/01/22 03:53:35;;;;;;;12.33;10.60;;;;;;;-2.19;100.00;125706.53;5112134;28;20279;-57
2024/01/22 03:56:05;;;;;;;14.27;11.73;;;;;;;-2.05;100.00;127430.97;5112446;28;20217;-55
2024/01/22 03:58:32;;;;;;;11.20;10.07;;;;;;;-1.96;100.00;130265.44;5113213;28;20188;-56
2024/01/22 04:01:00;;;;;;;14.83;11.10;;;;;;;-1.89;100.00;133965.94;5112450;28;20184;-57
2024/01/22 04:03:27;;;;;;;14.53;12.27;;;;;;;-1.87;100.00;138364.94;5112304;28;20274;-56
2024/01/22 04:05:54;;;;;;;16.03;11.67;;;;;;;-1.80;100.00;142418.53;5111975;28;20233;-57
2024/01/22 04:08:23;;;;;;;14.83;11.60;;;;;;;-1.75;100.00;143991.09;5112051;28;20232;-57
2024/01/22 04:10:50;;;;;;;13.07;11.70;;;;;;;-1.79;100.00;145074.81;5113607;28;20611;-55
2024/01/22 04:13:17;;;;;;;12.50;11.23;;;;;;;-1.80;100.00;145174.44;5116440;28;20190;-56
2024/01/22 04:15:44;;;;;;;11.90;10.73;;;;;;;-1.72;100.00;144566.38;5116197;28;20680;-56
2024/01/22 04:18:11;;;;;;;15.37;11.93;;;;;;;-1.68;100.00;145577.16;5116287;28;20278;-55
2024/01/22 04:20:38;;;;;;;15.30;12.23;;;;;;;-1.68;100.00;145649.94;5117077;27;20232;-56
2024/01/22 04:23:05;;;;;;;14.30;11.67;;;;;;;-1.61;100.00;145668.69;5116104;28;20184;-56
2024/01/22 04:25:34;;;;;;;13.43;11.97;;;;;;;-1.50;100.00;145696.25;5116036;28;20195;-56
2024/01/22 04:28:01;;;;;;;13.10;11.33;;;;;;;-1.49;100.00;145698.75;5116281;28;20729;-56
2024/01/22 04:30:28;;;;;;;15.67;11.00;;;;;;;-1.47;100.00;145702.47;5116229;28;20234;-55
2024/01/22 04:32:55;;;;;;;12.13;10.93;;;;;;;-1.56;100.00;145679.94;5115783;28;20183;-54
2024/01/22 04:35:22;;;;;;;15.00;10.73;;;;;;;-1.60;100.00;145671.22;5116082;28;20634;-57
2024/01/22 04:37:49;;;;;;;12.73;11.40;;;;;;;-1.78;100.00;145624.97;5115721;28;20179;-57
2024/01/22 04:40:17;;;;;;;14.20;12.17;;;;;;;-1.69;100.00;145648.69;5115848;28;20193;-56
2024/01/22 04:42:45;;;;;;;12.87;11.17;;;;;;;-1.75;100.00;145633.69;5116424;28;20183;-56
2024/01/22 04:45:12;;;;;;;15.27;12.07;;;;;;;-1.62;100.00;145666.22;5115617;27;20188;-56
2024/01/22 04:47:39;;;;;;;13.83;12.10;;;;;;;-1.62;100.00;145666.22;5115464;28;20183;-56
2024/01/22 04:50:08;;;;;;;20.20;12.00;;;;;;;-1.58;100.00;145676.22;5115718;28;20634;-56
2024/01/22 04:52:35;;;;;;;13.33;11.90;;;;;;;-1.81;100.00;145617.41;5115790;27;20183;-55
2024/01/22 04:55:02;;;;;;;13.13;11.73;;;;;;;-1.58;100.00;145674.97;5115377;28;20770;-56
2024/01/22 04:57:29;;;;;;;13.17;11.87;;;;;;;-1.61;100.00;145667.50;5115658;28;20658;-56
2024/01/22 04:59:57;;;;;;;16.00;12.17;;;;;;;-1.74;100.00;145636.16;5115625;28;20187;-57
2024/01/22 05:02:27;;;;;;;13.33;11.47;;;;;;;-1.78;100.00;145626.16;5115254;28;20183;-56
2024/01/22 05:04:57;;;;;;;14.23;12.03;;;;;;;-1.51;100.00;145693.72;5115183;28;20193;-57
2024/01/22 05:07:24;;;;;;;13.87;11.60;;;;;;;-1.46;100.00;145706.25;5115152;28;20191;-56
2024/01/22 05:09:57;;;;;;;17.97;13.37;;;;;;;-1.46;100.00;145705.00;5115526;28;20180;-56
2024/01/22 05:12:24;;;;;;;13.97;11.90;;;;;;;-1.47;100.00;145702.47;5115097;28;20192;-55
2024/01/22 05:14:51;;;;;;;14.20;11.53;;;;;;;-1.58;100.00;145676.22;5115433;28;20184;-57
2024/01/22 05:17:21;;;;;;;12.83;11.63;;;;;;;-1.41;100.00;145717.50;5114927;28;20176;-57
2024/01/22 05:19:48;;;;;;;15.43;13.00;;;;;;;-1.59;100.00;145672.47;5114935;28;20198;-57
2024/01/22 05:22:15;;;;;;;21.37;13.33;;;;;;;-1.41;100.00;145718.78;5114072;28;20183;-54
2024/01/22 05:24:42;;;;;;;16.33;13.80;;;;;;;-1.44;100.00;145709.97;5115136;28;20242;-55
2024/01/22 05:27:10;;;;;;;17.40;13.17;;;;;;;-1.42;100.00;145716.25;5114897;28;20194;-56
2024/01/22 05:29:37;;;;;;;14.23;12.70;;;;;;;-1.51;100.00;145693.72;5114919;28;20203;-56
2024/01/22 05:32:05;;;;;;;17.47;12.50;;;;;;;-1.26;100.00;145753.78;5114578;28;20268;-57
2024/01/22 05:34:33;;;;;;;16.10;12.47;;;;;;;-1.26;100.00;145755.03;5114974;28;20722;-56
2024/01/22 05:37:00;;;;;;;19.63;13.30;;;;;;;-1.26;100.00;145755.03;5114961;28;20629;-54
2024/01/22 05:39:27;;;;;;;13.67;11.00;;;;;;;-1.32;100.00;145738.78;5114765;28;20199;-56
2024/01/22 05:41:55;;;;;;;20.33;11.63;;;;;;;-1.36;100.00;145728.78;5114477;28;20186;-55
2024/01/22 05:44:22;;;;;;;19.77;12.17;;;;;;;-1.44;100.00;145711.22;5114339;28;20187;-57
2024/01/22 05:46:49;;;;;;;28.00;15.37;;;;;;;-1.45;100.00;145707.50;5114620;28;20649;-56
2024/01/22 05:49:18;;;;;;;16.43;12.77;;;;;;;-1.49;100.00;145697.50;5114295;28;20194;-57
2024/01/22 05:51:47;;;;;;;17.77;13.07;;;;;;;-1.51;100.00;145693.72;5114163;28;20298;-56
2024/01/22 05:54:14;;;;;;;17.80;12.73;;;;;;;-1.51;100.00;145693.72;5114190;28;20705;-58
2024/01/22 05:56:41;;;;;;;22.43;14.70;;;;;;;-1.59;100.00;145673.72;5115295;28;20184;-55
2024/01/22 05:59:09;;;;;;;28.30;17.30;;;;;;;-1.55;100.00;145682.47;5114127;28;20561;-57
2024/01/22 06:01:36;;;;;;;32.90;21.47;;;;;;;-1.70;100.00;145644.97;5114076;28;20180;-55
2024/01/22 06:04:06;;;;;;;54.03;31.07;;;;;;;-1.65;100.00;145658.69;5113956;28;20236;-56
2024/01/22 06:06:33;;;;;;;40.23;24.67;;;;;;;-1.36;100.00;145730.03;5114213;28;20671;-55
2024/01/22 06:09:02;;;;;;;45.83;26.60;;;;;;;-1.33;100.00;145737.53;5114866;28;20199;-56
2024/01/22 06:11:30;;;;;;;41.73;25.20;;;;;;;-1.28;100.00;145750.03;5113807;28;20207;-55
2024/01/22 06:13:57;;;;;;;29.63;19.43;;;;;;;-1.27;100.00;145751.31;5113924;28;20187;-57
2024/01/22 06:16:24;;;;;;;31.17;17.30;;;;;;;-1.46;100.00;145706.25;5113772;28;20188;-57
2024/01/22 06:18:51;;;;;;;23.83;15.50;;;;;;;-1.48;100.00;145699.97;5113803;28;20241;-57
2024/01/22 06:21:18;;;;;;;18.57;13.87;;;;;;;-1.55;100.00;145682.47;5114043;28;20232;-58
2024/01/22 06:23:46;;;;;;;15.13;12.23;;;;;;;-1.36;100.00;145728.78;5114091;28;20623;-55
2024/01/22 06:26:16;;;;;;;13.60;11.77;;;;;;;-1.16;100.00;145778.81;5113620;28;20189;-56
2024/01/22 06:28:43;;;;;;;15.33;12.67;;;;;;;-1.03;100.00;145811.34;5113496;28;20274;-58
2024/01/22 06:31:10;;;;;;;12.53;11.27;;;;;;;-1.06;100.00;145803.84;5113378;28;20207;-57
2024/01/22 06:33:37;;;;;;;14.23;11.43;;;;;;;-1.18;100.00;145773.78;5112871;28;20188;-56
2024/01/22 06:36:06;;;;;;;12.60;11.13;;;;;;;-1.06;100.00;145805.06;5113487;28;20207;-55
2024/01/22 06:38:34;;;;;;;12.80;10.70;;;;;;;-0.94;100.00;145835.16;5113612;28;20184;-56
2024/01/22 06:41:01;;;;;;;13.00;10.93;;;;;;;-0.86;100.00;145853.91;5114162;28;20191;-62
2024/01/22 06:43:29;;;;;;;17.80;13.00;;;;;;;-0.78;100.00;145872.69;5113246;27;20187;-61
2024/01/22 06:45:56;;;;;;;14.57;10.20;;;;;;;-0.65;100.00;145906.47;5113405;28;20184;-62
2024/01/22 06:48:23;;;;;;;13.90;11.50;;;;;;;-0.59;100.00;145920.22;5114394;28;20191;-58
2024/01/22 06:50:50;;;;;;;12.93;11.63;;;;;;;-0.62;100.00;145913.97;5113632;28;20207;-62
2024/01/22 06:53:17;;;;;;;24.77;13.47;;;;;;;-0.51;100.00;145941.50;5113559;28;20236;-63
2024/01/22 06:55:45;;;;;;;17.67;12.90;;;;;;;-0.21;100.00;146015.41;5113325;28;20231;-63
2024/01/22 06:58:13;;;;;;;14.93;12.73;;;;;;;-0.25;100.00;146005.38;5113801;28;20653;-64
2024/01/22 07:00:41;;;;;;;24.20;13.53;;;;;;;-0.15;100.00;146029.19;5113419;28;20227;-63
2024/01/22 07:03:08;;;;;;;21.93;15.63;;;;;;;-0.23;100.00;146009.16;5112894;28;20244;-61
2024/01/22 07:05:35;;;;;;;28.77;18.87;;;;;;;-0.21;100.00;146014.19;5112921;28;20180;-63
2024/01/22 07:08:02;;;;;;;23.10;13.20;;;;;;;-0.25;100.00;146004.13;5113301;28;20257;-61
2024/01/22 07:10:30;;;;;;;14.53;12.77;;;;;;;-0.39;100.00;145970.34;5113063;28;20225;-61
2024/01/22 07:12:57;;;;;;;16.47;12.97;;;;;;;-0.39;100.00;145969.09;5112994;28;20213;-61
2024/01/22 07:15:24;;;;;;;15.37;13.73;;;;;;;-0.44;100.00;145956.56;5112931;28;20194;-62
2024/01/22 07:17:53;;;;;;;22.60;14.90;;;;;;;-0.37;100.00;145974.06;5113026;28;20217;-61
2024/01/22 07:20:20;;;;;;;23.90;15.73;;;;;;;-0.54;100.00;145934.00;5113047;28;20653;-62
2024/01/22 07:22:47;;;;;;;23.80;16.97;;;;;;;-0.54;100.00;145934.00;5113431;28;20634;-62
2024/01/22 07:25:14;;;;;;;21.17;14.87;;;;;;;-0.34;100.00;145981.63;5112974;28;20758;-63
2024/01/22 07:27:42;;;;;;;20.47;14.50;;;;;;;-0.34;100.00;145981.63;5113210;28;20187;-62
2024/01/22 07:30:11;;;;;;;22.60;14.53;;;;;;;-0.10;100.00;146042.97;5113013;28;20245;-62
2024/01/22 07:32:39;;;;;;;22.87;13.73;;;;;;;0.11;100.00;146093.06;5113066;28;20204;-60
2024/01/22 07:35:09;;;;;;;22.10;16.00;;;;;;;0.37;100.00;146159.50;5113027;28;20187;-63
2024/01/22 07:37:37;;;;;;;20.07;15.60;;;;;;;0.50;100.00;146190.81;5112620;28;20183;-63
2024/01/22 07:40:09;;;;;;;26.00;16.93;;;;;;;0.69;100.00;146237.16;5112740;28;20204;-62
2024/01/22 07:42:36;;;;;;;25.60;16.93;;;;;;;0.97;100.00;146307.41;5112455;28;20183;-62
2024/01/22 07:45:05;;;;;;;18.60;14.43;;;;;;;2.47;100.00;146678.72;5111973;28;20187;-62
2024/01/22 07:47:33;;;;;;;22.80;19.60;;;;;;;4.29;100.00;147131.03;5112618;28;20206;-62
2024/01/22 07:50:00;;;;;;;20.70;14.90;;;;;;;5.11;100.00;147334.81;5113233;28;20607;-62
2024/01/22 07:52:28;;;;;;;19.67;13.57;;;;;;;5.56;100.00;147448.06;5115989;28;20214;-62
2024/01/22 07:54:55;;;;;;;30.63;21.30;;;;;;;5.71;100.00;147485.88;5112709;28;20318;-62
2024/01/22 07:57:24;;;;;;;20.37;15.17;;;;;;;5.96;100.00;147548.88;5113121;28;20625;-63
2024/01/22 07:59:51;;;;;;;26.87;16.50;;;;;;;6.33;100.00;147640.81;5112202;28;20184;-62
2024/01/22 08:02:18;;;;;;;20.40;15.00;;;;;;;6.83;100.00;147764.31;5112463;28;20183;-61
2024/01/22 08:04:45;;;;;;;15.90;13.20;;;;;;;6.27;100.00;147624.44;5112537;28;20252;-62
2024/01/22 08:07:12;;;;;;;20.20;17.13;;;;;;;4.89;100.00;147281.97;5112457;28;20240;-61
2024/01/22 08:09:41;;;;;;;24.67;18.77;;;;;;;4.83;100.00;147266.91;5112373;28;20978;-61
2024/01/22 08:12:08;;;;;;;24.57;16.10;;;;;;;5.06;100.00;147324.75;5112154;28;20210;-61
2024/01/22 08:14:35;;;;;;;22.03;15.23;;;;;;;4.93;100.00;147292.03;5112503;28;20217;-65
2024/01/22 08:17:02;;;;;;;15.07;13.53;;;;;;;4.93;100.00;147290.78;5112945;28;20183;-63
2024/01/22 08:19:30;;;;;;;18.50;14.20;;;;;;;4.24;100.00;147118.50;5113107;28;20180;-63
2024/01/22 08:21:57;;;;;;;18.20;13.63;;;;;;;5.27;100.00;147376.34;5112673;28;20232;-61
2024/01/22 08:24:24;;;;;;;15.10;13.63;;;;;;;6.14;100.00;147591.69;5112943;28;20190;-64
2024/01/22 08:26:53;;;;;;;15.33;12.27;;;;;;;7.24;100.00;147866.38;5113056;28;20187;-63
2024/01/22 08:29:20;;;;;;;12.23;11.03;;;;;;;7.52;99.44;147936.97;5113688;28;20245;-64
2024/01/22 08:31:47;;;;;;;16.37;12.70;;;;;;;8.88;89.96;148276.38;5112902;28;20200;-63
2024/01/22 08:34:14;;;;;;;14.30;12.80;;;;;;;9.92;78.23;148535.28;5113041;28;20183;-65
2024/01/22 08:36:42;;;;;;;13.20;11.90;;;;;;;10.63;71.89;148712.22;5113734;28;20218;-65
2024/01/22 08:39:09;;;;;;;17.57;12.33;;;;;;;10.79;69.37;148753.94;5112795;28;20562;-63
2024/01/22 08:41:37;;;;;;;15.17;13.43;;;;;;;10.85;70.73;148769.13;5112359;28;20179;-64
2024/01/22 08:44:05;;;;;;;15.60;13.93;;;;;;;10.72;69.56;148735.00;5113515;28;20188;-64
2024/01/22 08:46:33;;;;;;;20.33;13.53;;;;;;;11.38;66.02;148901.91;5112825;28;20294;-64
2024/01/22 08:49:00;;;;;;;14.27;12.80;;;;;;;11.87;62.14;149023.41;5112880;28;20188;-63
2024/01/22 08:51:28;;;;;;;12.67;11.57;;;;;;;12.27;59.98;149124.63;5112590;28;20235;-64
2024/01/22 08:53:55;;;;;;;8.93;8.23;;;;;;;12.54;55.11;149190.47;5111989;28;20231;-64
2024/01/22 08:56:22;;;;;;;10.57;9.43;;;;;;;12.58;55.57;149201.88;5112334;28;20249;-63
2024/01/22 08:58:49;;;;;;;7.73;7.33;;;;;;;12.03;52.50;149063.91;5115580;28;20633;-64
2024/01/22 09:01:18;;;;;;;8.47;7.87;;;;;;;13.01;53.35;149308.25;5115697;28;20332;-62
2024/01/22 09:03:45;;;;;;;10.20;9.17;;;;;;;13.30;51.40;149380.47;5115648;28;20187;-64
2024/01/22 09:06:12;;;;;;;8.33;7.70;;;;;;;13.71;50.24;149484.34;5116120;28;20706;-64
2024/01/22 09:08:41;;;;;;;8.60;8.00;;;;;;;14.74;47.18;149741.75;5116612;27;20199;-63
2024/01/22 09:11:07;;;;;;;8.47;7.97;;;;;;;14.47;48.65;149674.56;5116038;28;20664;-63
2024/01/22 09:13:34;;;;;;;7.93;7.27;;;;;;;13.96;46.83;149546.50;5116126;28;20673;-63
2024/01/22 09:16:01;;;;;;;9.37;8.37;;;;;;;12.25;49.77;149119.59;5115499;28;20179;-62
2024/01/22 09:18:29;;;;;;;8.40;7.80;;;;;;;12.23;51.30;149114.50;5115121;28;20199;-63
2024/01/22 09:20:56;;;;;;;8.30;7.80;;;;;;;11.69;51.30;148977.81;5115636;28;20183;-63
2024/01/22 09:23:23;;;;;;;7.40;7.10;;;;;;;13.09;50.92;149329.78;5115591;28;20180;-63
2024/01/22 09:25:51;;;;;;;16.30;8.93;;;;;;;14.90;47.72;149783.59;5115868;28;20197;-64
2024/01/22 09:28:20;;;;;;;10.43;9.37;;;;;;;14.76;47.12;149746.84;5115305;28;20186;-63
2024/01/22 09:30:47;;;;;;;11.73;8.30;;;;;;;14.63;47.03;149716.41;5116136;28;20270;-63
2024/01/22 09:33:14;;;;;;;8.47;7.70;;;;;;;16.59;44.56;150207.56;5115900;28;20207;-64
2024/01/22 09:35:42;;;;;;;7.87;7.50;;;;;;;17.14;41.83;150344.78;5115814;28;20191;-63
2024/01/22 09:38:09;;;;;;;9.57;8.67;;;;;;;18.32;40.46;150642.25;5115721;28;20187;-63
2024/01/22 09:40:36;;;;;;;8.10;7.80;;;;;;;17.84;40.00;150521.47;5116048;28;20572;-62
2024/01/22 09:43:04;;;;;;;8.50;7.73;;;;;;;17.61;39.67;150463.00;5115934;28;20638;-63
2024/01/22 09:45:33;;;;;;;7.93;7.63;;;;;;;18.26;39.76;150626.97;5116030;28;20751;-63
2024/01/22 09:48:01;;;;;;;7.93;7.53;;;;;;;19.59;38.31;150962.94;5116461;28;20179;-64
2024/01/22 09:50:28;;;;;;;7.47;7.18;;;;;;;18.80;38.16;150763.09;5115570;28;20272;-62
2024/01/22 09:53:01;;;;;;;8.45;7.80;;;;;;;18.84;38.00;150772.03;5114866;28;20325;-65
2024/01/22 09:55:28;;;;;;;8.00;7.60;;;;;;;16.81;39.41;150263.47;5114630;27;20234;-63
2024/01/22 09:57:59;;;;;;;8.50;7.78;;;;;;;16.96;40.07;150300.31;5115500;28;20590;-64
2024/01/22 10:00:28;;;;;;;8.83;8.40;;;;;;;15.39;41.89;149906.66;5115199;28;20186;-64
2024/01/22 10:02:56;;;;;;;8.30;7.70;;;;;;;15.32;42.46;149888.88;5114638;28;20175;-64
2024/01/22 10:05:23;;;;;;;8.80;8.40;;;;;;;15.91;42.29;150036.16;5114938;28;20234;-64
2024/01/22 10:07:51;;;;;;;9.27;8.50;;;;;;;16.51;41.21;150187.22;5115126;28;20655;-63
2024/01/22 10:10:20;;;;;;;9.27;8.53;;;;;;;17.21;41.10;150362.56;5114434;28;20187;-63
2024/01/22 10:13:05;;;;;;;9.23;8.73;;;;;;;17.83;39.58;150517.63;5114886;28;20519;-64
2024/01/22 10:15:32;;;;;;;9.90;9.30;;;;;;;17.59;38.98;150459.19;5115430;28;20666;-63
2024/01/22 10:18:08;;;;;;;8.07;7.57;;;;;;;15.83;42.06;150017.09;5115145;28;20183;-63
2024/01/22 10:20:35;;;;;;;8.07;7.63;;;;;;;15.59;41.54;149954.91;5115215;28;20179;-66
2024/01/22 10:23:03;;;;;;;8.77;8.37;;;;;;;14.47;43.06;149674.56;5114967;28;20236;-63
2024/01/22 10:25:31;;;;;;;9.43;8.93;;;;;;;13.34;45.83;149390.59;5114259;28;20180;-63
2024/01/22 10:28:09;;;;;;;9.13;8.57;;;;;;;11.83;48.34;149013.28;5115229;28;20194;-63
2024/01/22 10:30:37;;;;;;;9.13;8.63;;;;;;;11.99;49.00;149052.50;5114116;27;20183;-62
2024/01/22 10:33:15;;;;;;;9.03;8.53;;;;;;;11.88;49.92;149025.97;5114572;28;20644;-64
2024/01/22 10:35:42;;;;;;;9.17;8.57;;;;;;;10.56;50.48;148695.81;5114613;28;20220;-62
2024/01/22 10:38:11;;;;;;;9.70;8.83;;;;;;;10.87;55.19;148774.16;5114527;27;20191;-63
2024/01/22 10:40:40;;;;;;;9.07;8.57;;;;;;;11.62;51.85;148960.09;5115392;28;20243;-65
2024/01/22 10:43:26;;;;;;;9.83;9.23;;;;;;;11.71;51.72;148984.13;5115670;28;20211;-62
2024/01/22 10:45:54;;;;;;;9.23;8.57;;;;;;;11.48;51.22;148924.69;5114923;28;20192;-63
2024/01/22 10:48:24;;;;;;;10.30;9.13;;;;;;;12.00;51.55;149056.31;5115269;28;20187;-62
2024/01/22 10:50:52;;;;;;;10.63;9.30;;;;;;;12.14;51.10;149091.72;5114293;28;20270;-64
2024/01/22 10:53:20;;;;;;;9.83;8.97;;;;;;;12.07;50.64;149072.75;5114316;28;20234;-62
2024/01/22 10:55:58;;;;;;;9.50;8.93;;;;;;;13.48;49.63;149427.38;5114161;28;20227;-62
2024/01/22 10:58:28;;;;;;;9.73;9.07;;;;;;;14.87;46.11;149774.72;5114010;28;20623;-63
2024/01/22 11:01:01;;;;;;;9.67;9.07;;;;;;;15.34;43.52;149893.97;5114246;28;20183;-64
2024/01/22 11:03:29;;;;;;;10.40;9.63;;;;;;;15.39;43.69;149906.66;5113880;28;20180;-63
2024/01/22 11:06:00;;;;;;;11.10;10.23;;;;;;;16.15;43.46;150097.09;5113909;28;20244;-65
2024/01/22 11:08:30;;;;;;;9.43;8.73;;;;;;;15.40;41.61;149909.16;5114168;28;20194;-64